Time;durP1;ratioP1;P1;durP2;ratioP2;P2;SDS_P1;SDS_P2;PMS_P1;PMS_P2;Temp;Humidity;BMP_temperature;BMP_pressure;BME280_temperature;BME280_humidity;BME280_pressure;Samples;Min_cycle;Max_cycle;Signal;HPM_P1;HPM_P2
2023/04/30 00:02:51;;;;;;;;;;;;;;;10.50;90.46;101204.81;4981880;28;20377;-71
2023/04/30 00:05:54;;;;;;;;;;;;;;;10.50;90.71;101199.59;4982111;28;19925;-71
2023/04/30 00:08:57;;;;;;;;;;;;;;;10.52;90.74;101197.75;4982735;28;19924;-71
2023/04/30 00:12:01;;;;;;;;;;;;;;;10.52;90.40;101192.53;4982670;28;19946;-71
2023/04/30 00:15:04;;;;;;;;;;;;;;;10.52;90.37;101187.28;4982873;28;19924;-72
2023/04/30 00:18:09;;;;;;;;;;;;;;;10.52;90.25;101192.53;4981202;28;20293;-72
2023/04/30 00:21:12;;;;;;;;;;;;;;;10.50;90.67;101193.50;4981447;28;20511;-72
2023/04/30 00:24:15;;;;;;;;;;;;;;;10.50;90.84;101190.88;4981802;28;19929;-72
2023/04/30 00:27:18;;;;;;;;;;;;;;;10.49;90.45;101192.66;4982035;28;19926;-72
2023/04/30 00:30:21;;;;;;;;;;;;;;;10.51;90.49;101195.22;4982361;28;19972;-72
2023/04/30 00:33:24;;;;;;;;;;;;;;;10.51;90.51;101189.97;4982916;28;19961;-73
2023/04/30 00:36:26;;;;;;;;;;;;;;;10.50;90.64;101193.50;4982612;28;19986;-72
2023/04/30 00:39:29;;;;;;;;;;;;;;;10.47;90.64;101197.09;4973012;28;20309;-72
2023/04/30 00:42:32;;;;;;;;;;;;;;;10.45;90.72;101193.69;4972716;28;19925;-72
2023/04/30 00:45:35;;;;;;;;;;;;;;;10.42;91.25;101199.03;4971726;28;19960;-72
2023/04/30 00:48:38;;;;;;;;;;;;;;;10.43;91.33;101193.78;4972186;28;20472;-72
2023/04/30 00:51:41;;;;;;;;;;;;;;;10.44;91.32;101197.22;4971926;28;19925;-72
2023/04/30 00:54:45;;;;;;;;;;;;;;;10.44;91.28;101195.47;4971806;28;19925;-72
2023/04/30 00:57:48;;;;;;;;;;;;;;;10.43;91.48;101204.22;4971202;28;20023;-72
2023/04/30 01:00:51;;;;;;;;;;;;;;;10.43;91.34;101203.34;4971734;28;19929;-72
2023/04/30 01:03:55;;;;;;;;;;;;;;;10.42;90.92;101205.13;4972223;28;19924;-72
2023/04/30 01:06:59;;;;;;;;;;;;;;;10.40;91.18;101199.13;4972158;28;19925;-72
2023/04/30 01:10:03;;;;;;;;;;;;;;;10.39;91.32;101207.84;4972281;28;20032;-70
2023/04/30 01:13:10;;;;;;;;;;;;;;;10.39;91.42;101201.78;4971650;28;20357;-70
2023/04/30 01:16:25;;;;;;;;;;;;;;;10.39;91.38;101204.41;4970493;28;19926;-70
2023/04/30 01:19:42;;;;;;;;;;;;;;;10.39;91.65;101201.78;4971160;28;20354;-70
2023/04/30 01:22:49;;;;;;;;;;;;;;;10.36;91.65;101207.97;4971555;28;20386;-70
2023/04/30 01:25:58;;;;;;;;;;;;;;;10.34;91.83;101204.59;4972340;28;20447;-70
2023/04/30 01:29:01;;;;;;;;;;;;;;;10.32;91.86;101203.81;4971283;28;19929;-70
2023/04/30 01:32:05;;;;;;;;;;;;;;;10.31;91.74;101198.66;4971604;28;20463;-70
2023/04/30 01:35:08;;;;;;;;;;;;;;;10.31;92.05;101199.50;4971359;28;19961;-70
2023/04/30 01:38:11;;;;;;;;;;;;;;;10.29;92.21;101201.31;4971828;28;19925;-70
2023/04/30 01:41:20;;;;;;;;;;;;;;;10.29;91.85;101203.06;4971353;28;19928;-70
2023/04/30 01:44:35;;;;;;;;;;;;;;;10.25;92.14;101200.56;4972122;28;20396;-70
2023/04/30 01:47:39;;;;;;;;;;;;;;;10.25;91.99;101199.72;4972172;28;19925;-70
2023/04/30 01:50:50;;;;;;;;;;;;;;;10.21;91.36;101198.09;4972138;28;19925;-69
2023/04/30 01:53:56;;;;;;;;;;;;;;;10.19;90.78;101211.25;4970946;28;19980;-69
2023/04/30 01:57:03;;;;;;;;;;;;;;;10.16;90.54;101207.91;4970249;28;19929;-70
2023/04/30 02:00:10;;;;;;;;;;;;;;;10.06;90.25;101206.56;4970826;28;20427;-70
2023/04/30 02:03:16;;;;;;;;;;;;;;;10.01;90.48;101212.81;4971636;28;19925;-70
2023/04/30 02:06:20;;;;;;;;;;;;;;;9.98;90.16;101215.53;4971660;28;19929;-70
2023/04/30 02:09:23;;;;;;;;;;;;;;;9.93;90.45;101214.03;4971864;28;19944;-70
2023/04/30 02:12:28;;;;;;;;;;;;;;;9.91;90.44;101221.91;4971277;28;19941;-70
2023/04/30 02:15:31;;;;;;;;;;;;;;;9.88;90.29;101219.41;4970978;28;20476;-70
2023/04/30 02:18:35;;;;;;;;;;;;;;;9.87;90.28;101224.72;4972707;28;19998;-70
2023/04/30 02:21:38;;;;;;;;;;;;;;;9.83;90.27;101229.22;4970692;28;19945;-70
2023/04/30 02:24:41;;;;;;;;;;;;;;;9.81;90.03;101232.78;4971600;28;20431;-70
2023/04/30 02:27:44;;;;;;;;;;;;;;;9.77;89.74;101227.69;4971173;28;19933;-70
2023/04/30 02:30:47;;;;;;;;;;;;;;;9.76;90.08;101227.72;4971554;28;20027;-70
2023/04/30 02:33:52;;;;;;;;;;;;;;;9.75;90.57;101223.41;4971706;28;19925;-70
2023/04/30 02:36:55;;;;;;;;;;;;;;;9.75;90.51;101232.09;4971240;28;19924;-70
2023/04/30 02:39:58;;;;;;;;;;;;;;;9.73;90.59;101227.84;4971409;28;20052;-70
2023/04/30 02:43:02;;;;;;;;;;;;;;;9.76;90.78;101225.09;4970993;28;19963;-71
2023/04/30 02:46:05;;;;;;;;;;;;;;;9.79;91.22;101230.22;4971533;28;19925;-71
2023/04/30 02:49:08;;;;;;;;;;;;;;;9.79;91.35;101238.06;4971216;28;19988;-71
2023/04/30 02:52:11;;;;;;;;;;;;;;;9.73;91.43;101227.84;4971293;28;19925;-71
2023/04/30 02:55:15;;;;;;;;;;;;;;;9.72;92.01;101224.38;4971179;28;19925;-71
2023/04/30 02:58:18;;;;;;;;;;;;;;;9.70;92.06;101223.59;4970401;28;19937;-71
2023/04/30 03:01:21;;;;;;;;;;;;;;;9.68;91.84;101227.19;4969943;28;19972;-71
2023/04/30 03:04:25;;;;;;;;;;;;;;;9.61;92.02;101233.53;4971209;28;19924;-71
2023/04/30 03:07:28;;;;;;;;;;;;;;;9.58;91.98;101234.50;4971218;28;19926;-71
2023/04/30 03:10:31;;;;;;;;;;;;;;;9.48;92.81;101231.38;4973821;28;19933;-70
2023/04/30 03:13:34;;;;;;;;;;;;;;;9.47;93.17;101240.09;4974189;28;20349;-70
2023/04/30 03:16:37;;;;;;;;;;;;;;;9.48;93.89;101239.19;4974495;28;19929;-71
2023/04/30 03:19:40;;;;;;;;;;;;;;;9.48;94.33;101244.44;4974141;28;19930;-71
2023/04/30 03:22:45;;;;;;;;;;;;;;;9.49;94.16;101240.91;4973014;28;19926;-71
2023/04/30 03:25:48;;;;;;;;;;;;;;;9.49;93.88;101235.69;4973374;28;19941;-71
2023/04/30 03:28:51;;;;;;;;;;;;;;;9.49;93.61;101237.44;4977902;28;20427;-71
2023/04/30 03:31:54;;;;;;;;;;;;;;;9.46;93.62;101241.00;4984211;28;20290;-71
2023/04/30 03:34:57;;;;;;;;;;;;;;;9.45;93.86;101228.88;4983450;28;19933;-71
2023/04/30 03:38:03;;;;;;;;;;;;;;;9.44;93.79;101236.75;4981927;28;20338;-71
2023/04/30 03:41:06;;;;;;;;;;;;;;;9.44;93.63;101237.59;4981819;28;19973;-71
2023/04/30 03:44:14;;;;;;;;;;;;;;;9.40;93.29;101232.53;4982454;28;19940;-71
2023/04/30 03:47:17;;;;;;;;;;;;;;;9.34;92.94;101231.00;4983189;28;19940;-71
2023/04/30 03:50:20;;;;;;;;;;;;;;;9.34;93.16;101230.16;4983169;28;19994;-71
2023/04/30 03:53:24;;;;;;;;;;;;;;;9.33;92.65;101234.53;4980139;28;19940;-70
2023/04/30 03:56:27;;;;;;;;;;;;;;;9.30;92.35;101230.25;4979721;28;19940;-71
2023/04/30 03:59:31;;;;;;;;;;;;;;;9.19;92.37;101236.75;4979458;28;19928;-70
2023/04/30 04:02:35;;;;;;;;;;;;;;;9.21;92.64;101234.97;4979804;28;19975;-71
2023/04/30 04:05:38;;;;;;;;;;;;;;;9.20;92.43;101238.47;4983226;28;19965;-70
2023/04/30 04:08:44;;;;;;;;;;;;;;;9.18;92.15;101228.09;4982631;28;20400;-71
2023/04/30 04:11:47;;;;;;;;;;;;;;;9.10;92.04;101237.94;4982090;28;19925;-70
2023/04/30 04:14:50;;;;;;;;;;;;;;;9.06;92.49;101239.81;4979395;28;20317;-70
2023/04/30 04:17:54;;;;;;;;;;;;;;;8.99;92.11;101238.31;4978982;28;19929;-71
2023/04/30 04:20:58;;;;;;;;;;;;;;;8.96;92.25;101241.00;4981112;28;19932;-70
2023/04/30 04:24:07;;;;;;;;;;;;;;;8.96;92.32;101245.38;4982221;28;19967;-70
2023/04/30 04:27:10;;;;;;;;;;;;;;;8.88;92.05;101250.03;4982250;28;19936;-70
2023/04/30 04:30:13;;;;;;;;;;;;;;;8.86;92.11;101250.06;4982107;28;19992;-71
2023/04/30 04:33:16;;;;;;;;;;;;;;;8.86;92.03;101250.06;4981810;28;19925;-71
2023/04/30 04:36:22;;;;;;;;;;;;;;;8.87;91.63;101250.91;4981780;28;19970;-70
2023/04/30 04:39:25;;;;;;;;;;;;;;;8.78;91.44;101258.16;4981251;28;19929;-70
2023/04/30 04:42:28;;;;;;;;;;;;;;;8.58;92.11;101258.81;4978934;28;19929;-71
2023/04/30 04:45:32;;;;;;;;;;;;;;;8.54;92.59;101257.19;4979282;28;19928;-70
2023/04/30 04:48:36;;;;;;;;;;;;;;;8.67;93.09;101267.22;4979109;28;19929;-71
2023/04/30 04:51:40;;;;;;;;;;;;;;;8.72;92.35;101271.38;4978947;28;19926;-71
2023/04/30 04:54:44;;;;;;;;;;;;;;;8.70;92.20;101269.72;4979631;28;19964;-71
2023/04/30 04:57:47;;;;;;;;;;;;;;;8.63;92.56;101271.69;4980553;28;20290;-71
2023/04/30 05:00:50;;;;;;;;;;;;;;;8.66;92.35;101278.56;4981185;28;19975;-71
2023/04/30 05:03:53;;;;;;;;;;;;;;;8.68;92.64;101280.22;4981551;28;20393;-71
2023/04/30 05:06:56;;;;;;;;;;;;;;;8.73;92.45;101282.66;4978679;28;19941;-71
2023/04/30 05:09:59;;;;;;;;;;;;;;;8.67;92.57;101283.72;4982268;28;19971;-71
2023/04/30 05:13:02;;;;;;;;;;;;;;;8.40;94.46;101288.06;4981241;28;20389;-71
2023/04/30 05:16:06;;;;;;;;;;;;;;;8.32;95.64;101287.41;4979272;28;19929;-71
2023/04/30 05:19:09;;;;;;;;;;;;;;;8.44;95.25;101289.66;4980679;28;19972;-71
2023/04/30 05:22:12;;;;;;;;;;;;;;;8.63;94.48;101286.47;4981024;28;19929;-71
2023/04/30 05:25:16;;;;;;;;;;;;;;;8.76;93.79;101291.25;4981688;28;19929;-71
2023/04/30 05:28:18;;;;;;;;;;;;;;;8.76;92.83;101290.38;4990841;28;19925;-71
2023/04/30 05:31:21;;;;;;;;;;;;;;;8.51;93.53;101285.94;4990859;28;19932;-71
2023/04/30 05:34:25;;;;;;;;;;;;;;;8.54;93.72;101280.63;4991348;28;20399;-71
2023/04/30 05:37:27;;;;;;;;;;;;;;;8.51;93.80;101280.75;4991060;28;19924;-71
2023/04/30 05:40:31;;;;;;;;;;;;;;;8.51;94.00;101285.09;4991241;28;19975;-71
2023/04/30 05:43:34;;;;;;;;;;;;;;;8.49;93.74;101297.34;4991509;28;19930;-71
2023/04/30 05:47:06;;;;;;;;;;;;;;;8.52;93.37;101290.28;4991294;28;19976;-71
2023/04/30 05:50:13;;;;;;;;;;;;;;;8.35;94.57;101287.31;4989436;28;20340;-71
2023/04/30 05:53:16;;;;;;;;;;;;;;;8.29;95.24;101290.94;4991282;28;19952;-71
2023/04/30 05:56:25;;;;;;;;;;;;;;;8.48;94.94;101291.25;4991440;28;19924;-71
2023/04/30 05:59:32;;;;;;;;;;;;;;;8.57;94.20;101290.13;5001520;28;20038;-70
2023/04/30 06:02:36;;;;;;;;;;;;;;;8.66;93.31;101291.59;5010783;28;19974;-71
2023/04/30 06:06:16;;;;;;;;;;;;;;;8.80;93.12;101292.00;5009770;28;20284;-70
2023/04/30 06:09:16;;;;;;;;;;;;;;;8.94;92.81;101288.94;5010473;28;20285;-70
2023/04/30 06:13:05;;;;;;;;;;;;;;;9.02;92.47;101287.75;5010525;28;19928;-71
2023/04/30 06:16:08;;;;;;;;;;;;;;;9.03;92.23;101289.50;5010665;28;20180;-71
2023/04/30 06:19:15;;;;;;;;;;;;;;;9.05;92.32;101279.84;5015365;28;19967;-71
2023/04/30 06:22:18;;;;;;;;;;;;;;;9.07;92.57;101288.47;5017770;28;19929;-72
2023/04/30 06:25:21;;;;;;;;;;;;;;;9.07;92.58;101280.66;5017929;28;19923;-72
2023/04/30 06:28:25;;;;;;;;;;;;;;;9.19;91.79;101283.72;5030403;28;20019;-72
2023/04/30 06:31:29;;;;;;;;;;;;;;;9.26;91.84;101277.41;5029809;28;19924;-72
2023/04/30 06:34:33;;;;;;;;;;;;;;;9.41;91.27;101276.88;5029087;28;20164;-73
2023/04/30 06:37:37;;;;;;;;;;;;;;;9.52;89.36;101282.56;5029654;28;20396;-72
2023/04/30 06:40:40;;;;;;;;;;;;;;;9.60;88.30;101273.59;5029035;28;20344;-73
2023/04/30 06:43:43;;;;;;;;;;;;;;;9.67;86.98;101275.09;5029824;28;19970;-72
2023/04/30 06:46:47;;;;;;;;;;;;;;;9.74;87.29;101277.41;5032814;28;19970;-73
2023/04/30 06:49:49;;;;;;;;;;;;;;;9.84;86.40;101275.31;5032765;28;19924;-72
2023/04/30 06:52:52;;;;;;;;;;;;;;;9.85;85.06;101279.63;5033056;28;19924;-72
2023/04/30 06:55:55;;;;;;;;;;;;;;;9.87;84.53;101279.56;5032136;28;19923;-75
2023/04/30 06:58:58;;;;;;;;;;;;;;;9.96;84.56;101276.63;5032600;28;19983;-76
2023/04/30 07:02:02;;;;;;;;;;;;;;;10.07;83.27;101281.44;5020838;28;19928;-74
2023/04/30 07:05:05;;;;;;;;;;;;;;;10.09;82.28;101274.41;5032526;28;19935;-74
2023/04/30 07:08:08;;;;;;;;;;;;;;;10.18;82.92;101271.44;5032650;28;19924;-74
2023/04/30 07:11:13;;;;;;;;;;;;;;;10.20;79.84;101267.81;5032687;28;19924;-72
2023/04/30 07:14:16;;;;;;;;;;;;;;;10.29;80.86;101260.56;5032813;28;19939;-75
2023/04/30 07:17:19;;;;;;;;;;;;;;;10.37;80.12;101266.34;5032545;28;19959;-75
2023/04/30 07:20:23;;;;;;;;;;;;;;;10.43;80.39;101261.75;5032598;28;19928;-74
2023/04/30 07:23:26;;;;;;;;;;;;;;;10.48;78.86;101265.00;5032575;28;19925;-75
2023/04/30 07:26:29;;;;;;;;;;;;;;;10.43;77.38;101258.25;5032412;28;19931;-75
2023/04/30 07:29:32;;;;;;;;;;;;;;;10.48;77.61;101254.56;5032432;28;19924;-74
2023/04/30 07:32:36;;;;;;;;;;;;;;;10.60;77.96;101255.84;5031752;28;20292;-73
2023/04/30 07:35:40;;;;;;;;;;;;;;;10.74;77.88;101260.50;5032062;28;20322;-75
2023/04/30 07:38:43;;;;;;;;;;;;;;;10.83;77.61;101256.66;5031377;28;19939;-73
2023/04/30 07:41:46;;;;;;;;;;;;;;;10.82;74.65;101247.94;5031698;28;20062;-75
2023/04/30 07:44:52;;;;;;;;;;;;;;;10.80;75.01;101254.16;5032267;28;19924;-76
2023/04/30 07:47:55;;;;;;;;;;;;;;;10.90;75.77;101243.22;5031846;28;20391;-76
2023/04/30 07:50:58;;;;;;;;;;;;;;;11.02;75.85;101243.66;5032329;28;20327;-75
2023/04/30 07:54:02;;;;;;;;;;;;;;;11.14;74.54;101250.97;5032327;28;19961;-73
2023/04/30 07:57:06;;;;;;;;;;;;;;;11.26;75.58;101247.81;5031589;28;19962;-73
2023/04/30 08:00:09;;;;;;;;;;;;;;;11.34;74.47;101240.47;5031753;28;20387;-73
2023/04/30 08:03:19;;;;;;;;;;;;;;;11.38;73.77;101242.03;5032049;28;20053;-73
2023/04/30 08:06:22;;;;;;;;;;;;;;;11.49;74.82;101249.44;5030506;28;20296;-73
2023/04/30 08:09:25;;;;;;;;;;;;;;;11.59;73.89;101234.16;5031968;28;19981;-74
2023/04/30 08:16:31;;;;;;;;;;;;;;;11.77;73.11;101243.81;5031455;28;19977;-73
2023/04/30 08:19:34;;;;;;;;;;;;;;;11.84;73.06;101239.13;5030721;28;19924;-73
2023/04/30 08:22:59;;;;;;;;;;;;;;;11.94;72.08;101242.19;5030725;28;20005;-74
2023/04/30 08:26:01;;;;;;;;;;;;;;;11.99;70.34;101238.44;5031467;28;20009;-74
2023/04/30 08:29:04;;;;;;;;;;;;;;;12.05;70.24;101243.38;5029947;28;19986;-74
2023/04/30 08:32:08;;;;;;;;;;;;;;;12.18;70.66;101235.78;5030921;28;20288;-73
2023/04/30 08:35:11;;;;;;;;;;;;;;;12.28;69.08;101231.81;5031550;28;19924;-73
2023/04/30 08:38:14;;;;;;;;;;;;;;;12.39;68.36;101228.69;5031521;28;20327;-73
2023/04/30 08:41:19;;;;;;;;;;;;;;;12.42;68.64;101230.31;5031104;28;19937;-73
2023/04/30 08:44:22;;;;;;;;;;;;;;;12.43;65.95;101221.50;5031761;28;19925;-75
2023/04/30 08:47:26;;;;;;;;;;;;;;;12.72;71.22;101226.16;5031826;28;19924;-76
2023/04/30 08:50:30;;;;;;;;;;;;;;;12.91;66.36;101227.84;5032025;28;19969;-76
2023/04/30 08:53:34;;;;;;;;;;;;;;;12.95;65.64;101224.97;5030357;28;20431;-75
2023/04/30 08:56:38;;;;;;;;;;;;;;;12.91;65.58;101230.47;5028763;28;19924;-75
2023/04/30 08:59:43;;;;;;;;;;;;;;;12.94;64.63;101223.28;5016654;28;19932;-75
2023/04/30 09:02:48;;;;;;;;;;;;;;;12.97;63.92;101232.78;5029905;28;19940;-74
2023/04/30 09:05:52;;;;;;;;;;;;;;;12.98;62.09;101237.94;5027530;28;19951;-75
2023/04/30 09:08:55;;;;;;;;;;;;;;;12.98;62.03;101223.97;5028183;28;20009;-75
2023/04/30 09:12:12;;;;;;;;;;;;;;;13.08;62.25;101229.59;5026055;28;19951;-75
2023/04/30 09:15:16;;;;;;;;;;;;;;;13.15;58.91;101217.88;5030386;28;19970;-75
2023/04/30 09:18:20;;;;;;;;;;;;;;;13.18;59.27;101221.19;5030706;28;19961;-75
2023/04/30 09:21:33;;;;;;;;;;;;;;;13.32;60.03;101219.66;5028390;28;19924;-74
2023/04/30 09:24:47;;;;;;;;;;;;;;;13.42;59.37;101212.97;5030223;28;20012;-74
2023/04/30 09:28:05;;;;;;;;;;;;;;;13.46;57.45;101209.25;5029312;28;19924;-73
2023/04/30 09:31:17;;;;;;;;;;;;;;;13.60;56.02;101201.50;5029248;28;20390;-74
2023/04/30 09:34:32;;;;;;;;;;;;;;;13.59;56.45;101199.81;5028265;28;19923;-73
2023/04/30 09:37:38;;;;;;;;;;;;;;;13.69;56.37;101201.00;5029647;28;19924;-76
2023/04/30 09:40:41;;;;;;;;;;;;;;;13.82;56.37;101195.06;5027959;28;19962;-75
2023/04/30 09:43:45;;;;;;;;;;;;;;;13.92;55.47;101191.00;5016668;28;19978;-75
2023/04/30 09:46:49;;;;;;;;;;;;;;;13.99;55.03;101191.50;5029401;28;20008;-75
2023/04/30 09:49:53;;;;;;;;;;;;;;;14.07;53.49;101184.88;5029190;28;19923;-75
2023/04/30 09:53:04;;;;;;;;;;;;;;;14.07;53.55;101179.63;5027846;28;19924;-74
2023/04/30 09:56:07;;;;;;;;;;;;;;;14.13;52.62;101176.63;5017484;28;20030;-75
2023/04/30 09:59:12;;;;;;;;;;;;;;;14.27;52.52;101175.00;5029529;28;19990;-74
2023/04/30 10:02:16;;;;;;;;;;;;;;;14.37;51.19;101178.81;5027737;28;20346;-75
2023/04/30 10:05:19;;;;;;;;;;;;;;;14.40;52.13;101174.19;5016457;28;19924;-75
2023/04/30 10:08:26;;;;;;;;;;;;;;;14.46;51.05;101170.38;5016851;28;20008;-75
2023/04/30 10:11:31;;;;;;;;;;;;;;;14.55;51.07;101169.88;5029584;28;19924;-77
2023/04/30 10:14:34;;;;;;;;;;;;;;;14.60;50.57;101175.69;5027553;28;20351;-75
2023/04/30 10:17:43;;;;;;;;;;;;;;;14.63;50.91;101159.72;5027844;28;19923;-76
2023/04/30 10:20:47;;;;;;;;;;;;;;;14.73;49.43;101167.09;5028650;28;20391;-76
2023/04/30 10:23:51;;;;;;;;;;;;;;;14.68;47.87;101158.59;5029489;28;19981;-75
2023/04/30 10:26:56;;;;;;;;;;;;;;;14.77;49.22;101156.28;5029328;28;20327;-74
2023/04/30 10:29:59;;;;;;;;;;;;;;;14.77;48.89;101152.78;5016975;28;19970;-74
2023/04/30 10:33:17;;;;;;;;;;;;;;;14.88;49.10;101145.09;5029407;28;19924;-74
2023/04/30 10:36:29;;;;;;;;;;;;;;;14.84;46.49;101133.06;5029691;28;20312;-74
2023/04/30 10:39:33;;;;;;;;;;;;;;;14.83;46.50;101141.91;5028048;28;19924;-75
2023/04/30 10:42:37;;;;;;;;;;;;;;;14.97;45.87;101128.75;5028472;28;20009;-74
2023/04/30 10:45:42;;;;;;;;;;;;;;;14.99;46.61;101126.84;5028959;28;19974;-74
2023/04/30 10:48:45;;;;;;;;;;;;;;;15.14;48.24;101130.34;5027006;28;20034;-75
2023/04/30 10:51:50;;;;;;;;;;;;;;;15.28;47.08;101124.22;5027417;28;19971;-75
2023/04/30 10:54:53;;;;;;;;;;;;;;;15.38;47.10;101124.47;5028056;28;20455;-74
2023/04/30 10:57:59;;;;;;;;;;;;;;;15.39;46.89;101118.28;5016396;28;20400;-74
2023/04/30 11:01:04;;;;;;;;;;;;;;;15.41;46.82;101125.16;5028890;28;19975;-75
2023/04/30 11:04:09;;;;;;;;;;;;;;;15.51;46.23;101113.09;5026839;28;19985;-74
2023/04/30 11:07:12;;;;;;;;;;;;;;;15.52;46.26;101109.50;5027800;28;19961;-76
2023/04/30 11:10:16;;;;;;;;;;;;;;;15.69;47.40;101108.44;5027746;28;19999;-75
2023/04/30 11:13:19;;;;;;;;;;;;;;;15.76;45.04;101103.63;5016506;28;19931;-74
2023/04/30 11:16:28;;;;;;;;;;;;;;;15.87;46.39;101103.78;5028655;28;20035;-77
2023/04/30 11:19:33;;;;;;;;;;;;;;;15.88;44.71;101100.19;5027191;28;19950;-73
2023/04/30 11:22:37;;;;;;;;;;;;;;;15.83;44.73;101091.75;4998088;28;19975;-76
2023/04/30 11:25:44;;;;;;;;;;;;;;;15.87;44.80;101087.97;5009829;28;19928;-74
2023/04/30 11:28:52;;;;;;;;;;;;;;;16.07;45.15;101083.16;5009942;28;19924;-73
2023/04/30 11:31:55;;;;;;;;;;;;;;;16.15;44.19;101086.16;5001115;28;20010;-75
2023/04/30 11:34:59;;;;;;;;;;;;;;;16.22;44.18;101079.50;5013448;28;19967;-78
2023/04/30 11:38:02;;;;;;;;;;;;;;;16.27;43.74;101070.34;5013097;28;19924;-74
2023/04/30 11:41:06;;;;;;;;;;;;;;;16.30;44.20;101063.97;5012991;28;19928;-76
2023/04/30 11:44:22;;;;;;;;;;;;;;;16.46;44.90;101064.66;5013022;28;19925;-76
2023/04/30 11:47:26;;;;;;;;;;;;;;;16.54;44.53;101063.28;5013014;28;19940;-76
2023/04/30 11:50:32;;;;;;;;;;;;;;;16.60;44.67;101060.22;5012967;28;19925;-76
2023/04/30 11:53:35;;;;;;;;;;;;;;;16.66;44.96;101052.72;5031779;28;19990;-76
2023/04/30 11:56:38;;;;;;;;;;;;;;;16.66;42.88;101054.50;5032225;28;19924;-76
2023/04/30 11:59:42;;;;;;;;;;;;;;;16.67;43.51;101056.19;5061877;27;20076;-75
2023/04/30 12:02:46;;;;;;;;;;;;;;;16.60;42.09;101060.22;5135757;27;19925;-75
2023/04/30 12:05:50;;;;;;;;;;;;;;;16.68;42.87;101047.31;5123876;27;20412;-74
2023/04/30 12:08:53;;;;;;;;;;;;;;;16.86;43.33;101048.72;5124093;27;19981;-74
2023/04/30 12:11:57;;;;;;;;;;;;;;;17.00;43.91;101044.25;5136355;27;20428;-74
2023/04/30 12:15:09;;;;;;;;;;;;;;;17.08;42.88;101040.09;5050431;27;20292;-74
2023/04/30 12:18:14;;;;;;;;;;;;;;;17.24;42.92;101036.38;5012178;28;19960;-73
2023/04/30 12:21:17;;;;;;;;;;;;;;;17.28;42.39;101036.03;5012387;28;19944;-73
2023/04/30 12:24:22;;;;;;;;;;;;;;;17.38;42.51;101037.03;5012308;28;19974;-72
2023/04/30 12:27:26;;;;;;;;;;;;;;;17.50;42.46;101035.31;5023542;27;19959;-73
2023/04/30 12:30:29;;;;;;;;;;;;;;;17.66;42.51;101037.69;5031320;28;20438;-72
2023/04/30 12:33:32;;;;;;;;;;;;;;;17.78;42.01;101039.44;5031699;28;19923;-74
2023/04/30 12:36:35;;;;;;;;;;;;;;;17.92;40.88;101032.28;5031575;28;19939;-73
2023/04/30 12:39:39;;;;;;;;;;;;;;;18.19;41.33;101026.69;5031664;28;19928;-74
2023/04/30 12:42:42;;;;;;;;;;;;;;;18.27;39.88;101030.44;5031276;28;20438;-74
2023/04/30 12:45:50;;;;;;;;;;;;;;;18.42;41.69;101017.00;5031785;28;19924;-74
2023/04/30 12:48:53;;;;;;;;;;;;;;;18.57;40.59;101014.00;5031798;28;19942;-77
2023/04/30 12:52:01;;;;;;;;;;;;;;;18.73;40.70;101018.09;5032122;28;20005;-74
2023/04/30 12:55:17;;;;;;;;;;;;;;;18.76;39.96;101008.13;5030487;28;20428;-75
2023/04/30 12:58:22;;;;;;;;;;;;;;;18.95;40.29;101004.88;5030978;28;19970;-76
2023/04/30 13:01:25;;;;;;;;;;;;;;;19.10;39.38;101001.94;5031524;28;20347;-75
2023/04/30 13:04:28;;;;;;;;;;;;;;;19.29;38.95;100997.66;5031141;28;19969;-75
2023/04/30 13:07:39;;;;;;;;;;;;;;;19.39;38.66;100991.63;5031496;28;20344;-75
2023/04/30 13:10:42;;;;;;;;;;;;;;;19.70;39.34;100993.44;5031380;28;19987;-75
2023/04/30 13:13:46;;;;;;;;;;;;;;;19.87;38.38;100985.88;5031388;28;19925;-75
2023/04/30 13:16:49;;;;;;;;;;;;;;;20.14;37.99;100977.41;5031536;28;19939;-75
2023/04/30 13:19:52;;;;;;;;;;;;;;;20.41;37.55;100985.66;5031243;28;19924;-75
2023/04/30 13:22:55;;;;;;;;;;;;;;;20.47;36.65;100972.81;5031241;28;20013;-75
2023/04/30 13:25:58;;;;;;;;;;;;;;;20.40;35.30;100972.50;5030907;28;20338;-76
2023/04/30 13:29:03;;;;;;;;;;;;;;;20.77;35.91;100970.19;5030886;28;20000;-75
2023/04/30 13:32:07;;;;;;;;;;;;;;;21.21;35.15;100964.50;5031196;28;19940;-74
2023/04/30 13:35:10;;;;;;;;;;;;;;;21.39;34.75;100965.53;5031069;28;19923;-74
2023/04/30 13:38:14;;;;;;;;;;;;;;;21.09;33.65;100959.34;5031333;28;19928;-74
2023/04/30 13:41:17;;;;;;;;;;;;;;;21.66;35.33;100950.69;5030723;28;19946;-74
2023/04/30 13:44:20;;;;;;;;;;;;;;;22.43;33.29;100950.53;5030959;28;19928;-74
2023/04/30 13:47:23;;;;;;;;;;;;;;;22.89;32.38;100940.75;5030472;28;19924;-74
2023/04/30 13:50:26;;;;;;;;;;;;;;;23.54;31.74;100945.88;5011210;28;19925;-74
2023/04/30 13:53:29;;;;;;;;;;;;;;;23.86;30.67;100939.16;5007964;28;19925;-74
2023/04/30 13:56:32;;;;;;;;;;;;;;;24.14;29.52;100932.66;4998998;28;19924;-74
2023/04/30 13:59:37;;;;;;;;;;;;;;;25.35;27.95;100924.38;5010861;28;19966;-75
2023/04/30 14:02:41;;;;;;;;;;;;;;;27.26;25.92;100925.28;5010998;28;19936;-75
2023/04/30 14:05:43;;;;;;;;;;;;;;;29.36;22.50;100911.41;5010995;28;20010;-75
2023/04/30 14:08:47;;;;;;;;;;;;;;;31.67;20.35;100909.88;5010755;28;19961;-75
2023/04/30 14:11:50;;;;;;;;;;;;;;;31.94;20.10;100904.44;5010672;28;19944;-75
2023/04/30 14:14:54;;;;;;;;;;;;;;;32.76;18.56;100913.72;5010749;28;19942;-75
2023/04/30 14:17:57;;;;;;;;;;;;;;;32.29;18.44;100893.31;5010686;28;20511;-75
2023/04/30 14:21:03;;;;;;;;;;;;;;;31.64;19.07;100902.19;5010692;28;19964;-74
2023/04/30 14:24:06;;;;;;;;;;;;;;;31.95;18.79;100898.00;5010494;28;20025;-75
2023/04/30 14:27:10;;;;;;;;;;;;;;;31.01;20.16;100905.25;5023575;28;19923;-75
2023/04/30 14:30:13;;;;;;;;;;;;;;;30.35;19.73;100895.09;5010609;28;19924;-74
2023/04/30 14:33:16;;;;;;;;;;;;;;;31.38;19.84;100894.09;5010619;28;19925;-74
2023/04/30 14:36:19;;;;;;;;;;;;;;;31.07;20.16;100897.38;5010476;28;19924;-75
2023/04/30 14:39:23;;;;;;;;;;;;;;;32.33;19.68;100886.44;5010731;28;19962;-75
2023/04/30 14:42:26;;;;;;;;;;;;;;;32.29;18.74;100880.63;5010514;28;19929;-76
2023/04/30 14:45:30;;;;;;;;;;;;;;;31.33;18.54;100875.81;5010434;28;20320;-75
2023/04/30 14:48:34;;;;;;;;;;;;;;;30.96;19.53;100871.81;5010398;28;19928;-75
2023/04/30 14:51:36;;;;;;;;;;;;;;;30.01;20.90;100865.44;5010383;28;19925;-76
2023/04/30 14:54:40;;;;;;;;;;;;;;;31.34;19.87;100861.28;5010316;28;20354;-76
2023/04/30 14:57:43;;;;;;;;;;;;;;;32.56;19.14;100862.41;5010245;28;19924;-73
2023/04/30 15:00:47;;;;;;;;;;;;;;;32.46;18.28;100853.94;5010234;28;20396;-73
2023/04/30 15:03:54;;;;;;;;;;;;;;;33.54;17.67;100851.09;5011735;28;19939;-80
2023/04/30 15:07:04;;;;;;;;;;;;;;;33.24;18.01;100847.38;5013695;28;20339;-86
2023/04/30 15:10:08;;;;;;;;;;;;;;;32.87;18.07;100839.09;5001859;28;20384;-84
2023/04/30 15:13:13;;;;;;;;;;;;;;;32.45;18.61;100838.72;5013543;28;19943;-85
2023/04/30 15:16:17;;;;;;;;;;;;;;;31.69;18.90;100837.53;5016434;28;19928;-77
2023/04/30 15:19:22;;;;;;;;;;;;;;;32.13;18.89;100830.53;5033319;28;19923;-74
2023/04/30 15:22:29;;;;;;;;;;;;;;;32.26;18.30;100831.50;5020975;28;19929;-75
2023/04/30 15:25:33;;;;;;;;;;;;;;;32.45;17.83;100830.59;5032979;28;19924;-73
2023/04/30 15:28:36;;;;;;;;;;;;;;;32.34;18.18;100828.56;5033310;28;20399;-73
2023/04/30 15:31:39;;;;;;;;;;;;;;;30.45;18.84;100831.81;5033327;28;20372;-76
2023/04/30 15:34:42;;;;;;;;;;;;;;;29.93;19.56;100830.53;5032988;28;19978;-77
2023/04/30 15:37:45;;;;;;;;;;;;;;;30.64;19.42;100822.94;5032875;28;20285;-73
2023/04/30 15:40:48;;;;;;;;;;;;;;;29.72;19.86;100816.13;5038983;27;20008;-73
2023/04/30 15:43:51;;;;;;;;;;;;;;;29.24;20.50;100812.47;5108778;27;20004;-73
2023/04/30 15:46:55;;;;;;;;;;;;;;;29.06;21.03;100812.94;5032242;28;20005;-73
2023/04/30 15:49:59;;;;;;;;;;;;;;;29.47;19.89;100820.28;5032370;28;19970;-73
2023/04/30 15:53:03;;;;;;;;;;;;;;;28.09;21.64;100816.00;5032481;28;20001;-73
2023/04/30 15:56:07;;;;;;;;;;;;;;;27.17;22.69;100821.69;5032639;28;19924;-73
2023/04/30 15:59:14;;;;;;;;;;;;;;;26.71;22.87;100810.94;5031728;28;19973;-73